sensor_id;sensor_type;location;lat;lon;timestamp;P1;durP1;ratioP1;P2;durP2;ratioP2
45522;SDS011;31254;51.680;5.394;2023-02-20T00:01:32;12.95;;;6.88;;
45522;SDS011;31254;51.680;5.394;2023-02-20T00:03:59;12.15;;;6.60;;
45522;SDS011;31254;51.680;5.394;2023-02-20T00:06:27;12.30;;;6.55;;
45522;SDS011;31254;51.680;5.394;2023-02-20T00:08:56;13.45;;;6.15;;
45522;SDS011;31254;51.680;5.394;2023-02-20T00:11:23;13.10;;;6.68;;
45522;SDS011;31254;51.680;5.394;2023-02-20T00:13:50;13.00;;;6.45;;
45522;SDS011;31254;51.680;5.394;2023-02-20T00:16:16;16.67;;;7.80;;
45522;SDS011;31254;51.680;5.394;2023-02-20T00:18:45;17.58;;;8.23;;
45522;SDS011;31254;51.680;5.394;2023-02-20T00:21:14;14.75;;;6.88;;
45522;SDS011;31254;51.680;5.394;2023-02-20T00:23:41;15.75;;;7.38;;
45522;SDS011;31254;51.680;5.394;2023-02-20T00:26:13;13.50;;;6.97;;
45522;SDS011;31254;51.680;5.394;2023-02-20T00:28:45;16.10;;;7.53;;
45522;SDS011;31254;51.680;5.394;2023-02-20T00:31:13;17.40;;;7.68;;
45522;SDS011;31254;51.680;5.394;2023-02-20T00:33:41;15.45;;;7.95;;
45522;SDS011;31254;51.680;5.394;2023-02-20T00:36:13;12.98;;;7.55;;
45522;SDS011;31254;51.680;5.394;2023-02-20T00:38:44;14.15;;;8.00;;
45522;SDS011;31254;51.680;5.394;2023-02-20T00:41:12;12.48;;;7.00;;
45522;SDS011;31254;51.680;5.394;2023-02-20T00:43:40;11.95;;;7.20;;
45522;SDS011;31254;51.680;5.394;2023-02-20T00:46:09;13.98;;;7.25;;
45522;SDS011;31254;51.680;5.394;2023-02-20T00:48:38;14.75;;;7.10;;
45522;SDS011;31254;51.680;5.394;2023-02-20T00:51:04;15.88;;;7.53;;
45522;SDS011;31254;51.680;5.394;2023-02-20T00:53:31;14.65;;;7.68;;
45522;SDS011;31254;51.680;5.394;2023-02-20T00:55:58;15.00;;;8.43;;
45522;SDS011;31254;51.680;5.394;2023-02-20T00:58:24;14.75;;;8.18;;
45522;SDS011;31254;51.680;5.394;2023-02-20T01:00:51;16.00;;;8.05;;
45522;SDS011;31254;51.680;5.394;2023-02-20T01:03:18;15.48;;;8.05;;
45522;SDS011;31254;51.680;5.394;2023-02-20T01:05:44;15.45;;;8.60;;
45522;SDS011;31254;51.680;5.394;2023-02-20T01:08:11;14.57;;;8.60;;
45522;SDS011;31254;51.680;5.394;2023-02-20T01:10:40;16.88;;;7.95;;
45522;SDS011;31254;51.680;5.394;2023-02-20T01:13:09;18.05;;;8.25;;
45522;SDS011;31254;51.680;5.394;2023-02-20T01:15:36;21.02;;;9.10;;
45522;SDS011;31254;51.680;5.394;2023-02-20T01:18:02;18.10;;;8.60;;
45522;SDS011;31254;51.680;5.394;2023-02-20T01:20:31;15.75;;;8.55;;
45522;SDS011;31254;51.680;5.394;2023-02-20T01:23:00;18.80;;;8.50;;
45522;SDS011;31254;51.680;5.394;2023-02-20T01:25:26;14.07;;;8.75;;
45522;SDS011;31254;51.680;5.394;2023-02-20T01:27:53;18.65;;;9.27;;
45522;SDS011;31254;51.680;5.394;2023-02-20T01:30:20;21.90;;;9.57;;
45522;SDS011;31254;51.680;5.394;2023-02-20T01:32:46;23.50;;;9.35;;
45522;SDS011;31254;51.680;5.394;2023-02-20T01:35:14;16.50;;;9.35;;
45522;SDS011;31254;51.680;5.394;2023-02-20T01:37:43;17.75;;;8.90;;
45522;SDS011;31254;51.680;5.394;2023-02-20T01:40:20;16.33;;;8.80;;
45522;SDS011;31254;51.680;5.394;2023-02-20T01:42:50;19.42;;;8.88;;
45522;SDS011;31254;51.680;5.394;2023-02-20T01:47:47;18.88;;;9.35;;
45522;SDS011;31254;51.680;5.394;2023-02-20T01:50:15;18.92;;;8.73;;
45522;SDS011;31254;51.680;5.394;2023-02-20T01:52:46;16.42;;;9.63;;
45522;SDS011;31254;51.680;5.394;2023-02-20T01:57:50;19.38;;;9.73;;
45522;SDS011;31254;51.680;5.394;2023-02-20T02:00:22;20.27;;;10.25;;
45522;SDS011;31254;51.680;5.394;2023-02-20T02:02:57;15.82;;;9.70;;
45522;SDS011;31254;51.680;5.394;2023-02-20T02:05:31;14.63;;;9.38;;
45522;SDS011;31254;51.680;5.394;2023-02-20T02:08:02;22.23;;;9.45;;
45522;SDS011;31254;51.680;5.394;2023-02-20T02:10:34;18.98;;;9.73;;
45522;SDS011;31254;51.680;5.394;2023-02-20T02:13:08;28.63;;;10.32;;
45522;SDS011;31254;51.680;5.394;2023-02-20T02:15:37;18.45;;;9.43;;
45522;SDS011;31254;51.680;5.394;2023-02-20T02:18:16;20.80;;;10.40;;
45522;SDS011;31254;51.680;5.394;2023-02-20T02:23:53;19.50;;;10.73;;
45522;SDS011;31254;51.680;5.394;2023-02-20T02:26:54;25.00;;;10.43;;
45522;SDS011;31254;51.680;5.394;2023-02-20T02:43:53;25.48;;;11.10;;
45522;SDS011;31254;51.680;5.394;2023-02-20T02:46:30;24.05;;;11.20;;
45522;SDS011;31254;51.680;5.394;2023-02-20T02:49:16;40.05;;;13.75;;
45522;SDS011;31254;51.680;5.394;2023-02-20T02:52:09;24.85;;;12.23;;
45522;SDS011;31254;51.680;5.394;2023-02-20T02:54:37;29.15;;;13.70;;
45522;SDS011;31254;51.680;5.394;2023-02-20T02:59:55;30.63;;;16.15;;
45522;SDS011;31254;51.680;5.394;2023-02-20T03:02:27;32.20;;;16.15;;
45522;SDS011;31254;51.680;5.394;2023-02-20T03:04:58;32.50;;;17.73;;
45522;SDS011;31254;51.680;5.394;2023-02-20T03:07:30;38.25;;;18.65;;
45522;SDS011;31254;51.680;5.394;2023-02-20T03:10:02;43.53;;;20.98;;
45522;SDS011;31254;51.680;5.394;2023-02-20T03:12:41;37.17;;;20.23;;
45522;SDS011;31254;51.680;5.394;2023-02-20T03:20:39;42.45;;;23.27;;
45522;SDS011;31254;51.680;5.394;2023-02-20T03:23:13;49.42;;;22.45;;
45522;SDS011;31254;51.680;5.394;2023-02-20T03:25:52;50.80;;;24.42;;
45522;SDS011;31254;51.680;5.394;2023-02-20T03:28:23;45.70;;;24.65;;
45522;SDS011;31254;51.680;5.394;2023-02-20T03:33:33;54.83;;;24.73;;
45522;SDS011;31254;51.680;5.394;2023-02-20T03:36:27;45.22;;;23.48;;
45522;SDS011;31254;51.680;5.394;2023-02-20T03:39:19;48.42;;;24.15;;
45522;SDS011;31254;51.680;5.394;2023-02-20T03:42:08;54.35;;;25.98;;
45522;SDS011;31254;51.680;5.394;2023-02-20T03:44:57;52.05;;;26.23;;
45522;SDS011;31254;51.680;5.394;2023-02-20T03:47:29;49.40;;;23.90;;
45522;SDS011;31254;51.680;5.394;2023-02-20T03:50:00;49.13;;;24.95;;
45522;SDS011;31254;51.680;5.394;2023-02-20T03:52:32;58.50;;;26.73;;
45522;SDS011;31254;51.680;5.394;2023-02-20T03:54:59;57.58;;;26.83;;
45522;SDS011;31254;51.680;5.394;2023-02-20T03:57:27;56.53;;;27.33;;
45522;SDS011;31254;51.680;5.394;2023-02-20T04:00:00;58.25;;;26.45;;
45522;SDS011;31254;51.680;5.394;2023-02-20T04:02:41;47.97;;;25.95;;
45522;SDS011;31254;51.680;5.394;2023-02-20T04:05:15;59.40;;;27.33;;
45522;SDS011;31254;51.680;5.394;2023-02-20T04:10:21;59.67;;;27.92;;
45522;SDS011;31254;51.680;5.394;2023-02-20T04:12:52;51.75;;;26.23;;
45522;SDS011;31254;51.680;5.394;2023-02-20T04:15:21;57.08;;;26.35;;
45522;SDS011;31254;51.680;5.394;2023-02-20T04:17:51;49.38;;;25.27;;
45522;SDS011;31254;51.680;5.394;2023-02-20T04:20:24;47.53;;;25.40;;
45522;SDS011;31254;51.680;5.394;2023-02-20T04:22:51;45.17;;;25.85;;
45522;SDS011;31254;51.680;5.394;2023-02-20T04:25:32;53.17;;;25.20;;
45522;SDS011;31254;51.680;5.394;2023-02-20T04:28:05;46.80;;;24.75;;
45522;SDS011;31254;51.680;5.394;2023-02-20T04:30:32;51.17;;;24.88;;
45522;SDS011;31254;51.680;5.394;2023-02-20T04:32:59;50.65;;;25.10;;
45522;SDS011;31254;51.680;5.394;2023-02-20T04:35:28;52.58;;;25.50;;
45522;SDS011;31254;51.680;5.394;2023-02-20T04:37:55;51.25;;;25.90;;
45522;SDS011;31254;51.680;5.394;2023-02-20T04:40:22;51.53;;;26.65;;
45522;SDS011;31254;51.680;5.394;2023-02-20T04:42:49;46.92;;;24.20;;
45522;SDS011;31254;51.680;5.394;2023-02-20T04:45:16;47.25;;;25.95;;
45522;SDS011;31254;51.680;5.394;2023-02-20T04:47:43;48.60;;;24.67;;
45522;SDS011;31254;51.680;5.394;2023-02-20T04:50:15;46.95;;;24.50;;
45522;SDS011;31254;51.680;5.394;2023-02-20T04:52:49;42.80;;;24.35;;
45522;SDS011;31254;51.680;5.394;2023-02-20T04:55:15;44.28;;;23.90;;
45522;SDS011;31254;51.680;5.394;2023-02-20T04:57:42;45.70;;;24.58;;
45522;SDS011;31254;51.680;5.394;2023-02-20T05:00:09;45.33;;;22.85;;
45522;SDS011;31254;51.680;5.394;2023-02-20T05:02:38;40.92;;;19.95;;
45522;SDS011;31254;51.680;5.394;2023-02-20T05:05:05;45.45;;;22.80;;
45522;SDS011;31254;51.680;5.394;2023-02-20T05:07:35;41.85;;;21.98;;
45522;SDS011;31254;51.680;5.394;2023-02-20T05:10:02;43.42;;;20.77;;
45522;SDS011;31254;51.680;5.394;2023-02-20T05:12:28;37.47;;;20.15;;
45522;SDS011;31254;51.680;5.394;2023-02-20T05:14:55;33.85;;;19.20;;
45522;SDS011;31254;51.680;5.394;2023-02-20T05:17:24;44.20;;;20.65;;
45522;SDS011;31254;51.680;5.394;2023-02-20T05:19:57;36.33;;;20.02;;
45522;SDS011;31254;51.680;5.394;2023-02-20T05:22:24;39.55;;;18.77;;
45522;SDS011;31254;51.680;5.394;2023-02-20T05:24:51;38.53;;;18.98;;
45522;SDS011;31254;51.680;5.394;2023-02-20T05:27:18;38.20;;;19.10;;
45522;SDS011;31254;51.680;5.394;2023-02-20T05:29:50;33.53;;;17.92;;
45522;SDS011;31254;51.680;5.394;2023-02-20T05:32:19;39.50;;;17.90;;
45522;SDS011;31254;51.680;5.394;2023-02-20T05:34:46;31.13;;;16.25;;
45522;SDS011;31254;51.680;5.394;2023-02-20T05:37:14;29.88;;;15.55;;
45522;SDS011;31254;51.680;5.394;2023-02-20T05:39:42;31.65;;;16.52;;
45522;SDS011;31254;51.680;5.394;2023-02-20T05:42:09;28.17;;;14.32;;
45522;SDS011;31254;51.680;5.394;2023-02-20T05:44:38;27.90;;;15.57;;
45522;SDS011;31254;51.680;5.394;2023-02-20T05:47:05;29.08;;;14.80;;
45522;SDS011;31254;51.680;5.394;2023-02-20T05:49:35;30.00;;;14.30;;
45522;SDS011;31254;51.680;5.394;2023-02-20T05:52:02;29.85;;;15.25;;
45522;SDS011;31254;51.680;5.394;2023-02-20T05:54:40;28.42;;;14.32;;
45522;SDS011;31254;51.680;5.394;2023-02-20T05:57:11;31.98;;;14.45;;
45522;SDS011;31254;51.680;5.394;2023-02-20T05:59:38;27.55;;;14.02;;
45522;SDS011;31254;51.680;5.394;2023-02-20T06:02:05;29.40;;;13.55;;
45522;SDS011;31254;51.680;5.394;2023-02-20T06:04:31;26.95;;;13.93;;
45522;SDS011;31254;51.680;5.394;2023-02-20T06:06:58;29.75;;;14.45;;
45522;SDS011;31254;51.680;5.394;2023-02-20T06:09:25;30.77;;;13.05;;
45522;SDS011;31254;51.680;5.394;2023-02-20T06:11:53;26.60;;;13.38;;
45522;SDS011;31254;51.680;5.394;2023-02-20T06:14:21;31.08;;;14.27;;
45522;SDS011;31254;51.680;5.394;2023-02-20T06:16:50;25.70;;;12.50;;
45522;SDS011;31254;51.680;5.394;2023-02-20T06:19:18;31.23;;;13.65;;
45522;SDS011;31254;51.680;5.394;2023-02-20T06:21:50;28.05;;;13.18;;
45522;SDS011;31254;51.680;5.394;2023-02-20T06:24:19;28.55;;;12.57;;
45522;SDS011;31254;51.680;5.394;2023-02-20T06:26:48;23.30;;;12.23;;
45522;SDS011;31254;51.680;5.394;2023-02-20T06:29:15;28.50;;;12.35;;
45522;SDS011;31254;51.680;5.394;2023-02-20T06:31:45;22.67;;;12.25;;
45522;SDS011;31254;51.680;5.394;2023-02-20T06:34:12;29.42;;;12.27;;
45522;SDS011;31254;51.680;5.394;2023-02-20T06:36:42;24.38;;;11.65;;
45522;SDS011;31254;51.680;5.394;2023-02-20T06:39:10;25.33;;;12.60;;
45522;SDS011;31254;51.680;5.394;2023-02-20T06:41:38;23.25;;;11.85;;
45522;SDS011;31254;51.680;5.394;2023-02-20T06:44:07;24.15;;;11.82;;
45522;SDS011;31254;51.680;5.394;2023-02-20T06:46:33;25.23;;;12.10;;
45522;SDS011;31254;51.680;5.394;2023-02-20T06:49:03;29.17;;;11.48;;
45522;SDS011;31254;51.680;5.394;2023-02-20T06:51:30;31.60;;;12.38;;
45522;SDS011;31254;51.680;5.394;2023-02-20T06:53:59;26.95;;;12.68;;
45522;SDS011;31254;51.680;5.394;2023-02-20T06:56:30;22.45;;;11.65;;
45522;SDS011;31254;51.680;5.394;2023-02-20T06:58:58;25.92;;;12.43;;
45522;SDS011;31254;51.680;5.394;2023-02-20T07:01:30;26.08;;;11.90;;
45522;SDS011;31254;51.680;5.394;2023-02-20T07:04:05;28.00;;;11.90;;
45522;SDS011;31254;51.680;5.394;2023-02-20T07:06:34;29.95;;;12.55;;
45522;SDS011;31254;51.680;5.394;2023-02-20T07:09:02;27.55;;;13.02;;
45522;SDS011;31254;51.680;5.394;2023-02-20T07:11:29;25.55;;;13.10;;
45522;SDS011;31254;51.680;5.394;2023-02-20T07:14:00;34.90;;;14.30;;
45522;SDS011;31254;51.680;5.394;2023-02-20T07:16:27;27.63;;;13.77;;
45522;SDS011;31254;51.680;5.394;2023-02-20T07:18:54;28.90;;;13.52;;
45522;SDS011;31254;51.680;5.394;2023-02-20T07:21:23;30.08;;;14.23;;
45522;SDS011;31254;51.680;5.394;2023-02-20T07:23:50;27.00;;;13.68;;
45522;SDS011;31254;51.680;5.394;2023-02-20T07:26:19;30.40;;;13.68;;
45522;SDS011;31254;51.680;5.394;2023-02-20T07:28:51;25.15;;;14.30;;
45522;SDS011;31254;51.680;5.394;2023-02-20T07:31:20;32.60;;;14.15;;
45522;SDS011;31254;51.680;5.394;2023-02-20T07:33:47;26.98;;;13.60;;
45522;SDS011;31254;51.680;5.394;2023-02-20T07:36:14;33.45;;;14.65;;
45522;SDS011;31254;51.680;5.394;2023-02-20T07:38:41;32.13;;;15.20;;
45522;SDS011;31254;51.680;5.394;2023-02-20T07:41:08;28.33;;;13.60;;
45522;SDS011;31254;51.680;5.394;2023-02-20T07:43:40;26.90;;;13.63;;
45522;SDS011;31254;51.680;5.394;2023-02-20T07:46:07;30.85;;;13.75;;
45522;SDS011;31254;51.680;5.394;2023-02-20T07:48:36;25.80;;;12.93;;
45522;SDS011;31254;51.680;5.394;2023-02-20T07:51:02;25.67;;;13.85;;
45522;SDS011;31254;51.680;5.394;2023-02-20T07:53:32;30.65;;;14.05;;
45522;SDS011;31254;51.680;5.394;2023-02-20T07:55:59;25.40;;;13.25;;
45522;SDS011;31254;51.680;5.394;2023-02-20T07:58:25;28.13;;;12.20;;
45522;SDS011;31254;51.680;5.394;2023-02-20T08:00:54;31.45;;;13.95;;
45522;SDS011;31254;51.680;5.394;2023-02-20T08:03:20;29.25;;;13.57;;
45522;SDS011;31254;51.680;5.394;2023-02-20T08:05:47;26.10;;;12.13;;
45522;SDS011;31254;51.680;5.394;2023-02-20T08:08:15;29.10;;;12.70;;
45522;SDS011;31254;51.680;5.394;2023-02-20T08:10:42;30.20;;;13.63;;
45522;SDS011;31254;51.680;5.394;2023-02-20T08:13:08;28.23;;;12.48;;
45522;SDS011;31254;51.680;5.394;2023-02-20T08:15:35;26.20;;;11.77;;
45522;SDS011;31254;51.680;5.394;2023-02-20T08:18:04;25.05;;;12.68;;
45522;SDS011;31254;51.680;5.394;2023-02-20T08:20:40;31.55;;;12.93;;
45522;SDS011;31254;51.680;5.394;2023-02-20T08:23:21;22.08;;;11.25;;
45522;SDS011;31254;51.680;5.394;2023-02-20T08:25:49;28.17;;;11.75;;
45522;SDS011;31254;51.680;5.394;2023-02-20T08:28:17;24.88;;;12.25;;
45522;SDS011;31254;51.680;5.394;2023-02-20T08:30:44;23.23;;;12.13;;
45522;SDS011;31254;51.680;5.394;2023-02-20T08:33:10;23.30;;;11.85;;
45522;SDS011;31254;51.680;5.394;2023-02-20T08:35:37;24.10;;;12.48;;
45522;SDS011;31254;51.680;5.394;2023-02-20T08:38:05;25.80;;;12.75;;
45522;SDS011;31254;51.680;5.394;2023-02-20T08:40:32;26.75;;;12.25;;
45522;SDS011;31254;51.680;5.394;2023-02-20T08:42:59;23.25;;;12.65;;
45522;SDS011;31254;51.680;5.394;2023-02-20T08:45:28;28.30;;;11.52;;
45522;SDS011;31254;51.680;5.394;2023-02-20T08:47:57;28.85;;;13.45;;
45522;SDS011;31254;51.680;5.394;2023-02-20T08:50:27;28.50;;;13.18;;
45522;SDS011;31254;51.680;5.394;2023-02-20T08:52:54;23.45;;;13.55;;
45522;SDS011;31254;51.680;5.394;2023-02-20T08:55:20;25.73;;;12.02;;
45522;SDS011;31254;51.680;5.394;2023-02-20T08:57:47;33.47;;;12.80;;
45522;SDS011;31254;51.680;5.394;2023-02-20T09:00:14;22.77;;;12.35;;
45522;SDS011;31254;51.680;5.394;2023-02-20T09:02:42;31.50;;;13.20;;
45522;SDS011;31254;51.680;5.394;2023-02-20T09:05:09;29.67;;;12.88;;
45522;SDS011;31254;51.680;5.394;2023-02-20T09:07:36;27.15;;;13.70;;
45522;SDS011;31254;51.680;5.394;2023-02-20T09:10:03;29.13;;;13.15;;
45522;SDS011;31254;51.680;5.394;2023-02-20T09:12:31;25.95;;;13.52;;
45522;SDS011;31254;51.680;5.394;2023-02-20T09:15:00;25.27;;;13.45;;
45522;SDS011;31254;51.680;5.394;2023-02-20T09:17:27;28.20;;;13.13;;
45522;SDS011;31254;51.680;5.394;2023-02-20T09:19:57;28.90;;;13.80;;
45522;SDS011;31254;51.680;5.394;2023-02-20T09:22:25;26.40;;;13.77;;
45522;SDS011;31254;51.680;5.394;2023-02-20T09:24:52;28.60;;;13.63;;
45522;SDS011;31254;51.680;5.394;2023-02-20T09:27:22;26.17;;;13.27;;
45522;SDS011;31254;51.680;5.394;2023-02-20T09:29:51;28.15;;;13.45;;
45522;SDS011;31254;51.680;5.394;2023-02-20T09:32:20;30.83;;;13.27;;
45522;SDS011;31254;51.680;5.394;2023-02-20T09:34:50;22.58;;;13.13;;
45522;SDS011;31254;51.680;5.394;2023-02-20T09:37:18;28.67;;;14.43;;
45522;SDS011;31254;51.680;5.394;2023-02-20T09:39:45;26.92;;;12.65;;
45522;SDS011;31254;51.680;5.394;2023-02-20T09:45:09;29.23;;;14.63;;
45522;SDS011;31254;51.680;5.394;2023-02-20T09:50:13;22.75;;;12.18;;
45522;SDS011;31254;51.680;5.394;2023-02-20T09:52:56;26.27;;;12.40;;
45522;SDS011;31254;51.680;5.394;2023-02-20T09:55:27;22.80;;;12.40;;
45522;SDS011;31254;51.680;5.394;2023-02-20T09:58:00;24.88;;;12.13;;
45522;SDS011;31254;51.680;5.394;2023-02-20T10:00:31;29.55;;;12.05;;
45522;SDS011;31254;51.680;5.394;2023-02-20T10:03:07;23.67;;;11.75;;
45522;SDS011;31254;51.680;5.394;2023-02-20T10:05:41;19.80;;;11.30;;
45522;SDS011;31254;51.680;5.394;2023-02-20T10:08:17;27.98;;;10.85;;
45522;SDS011;31254;51.680;5.394;2023-02-20T10:10:50;29.63;;;11.07;;
45522;SDS011;31254;51.680;5.394;2023-02-20T10:19:14;28.58;;;11.80;;
45522;SDS011;31254;51.680;5.394;2023-02-20T10:21:44;22.85;;;10.38;;
45522;SDS011;31254;51.680;5.394;2023-02-20T10:24:25;27.25;;;11.85;;
45522;SDS011;31254;51.680;5.394;2023-02-20T10:29:37;27.27;;;11.68;;
45522;SDS011;31254;51.680;5.394;2023-02-20T10:32:08;25.50;;;11.55;;
45522;SDS011;31254;51.680;5.394;2023-02-20T10:34:56;25.42;;;10.35;;
45522;SDS011;31254;51.680;5.394;2023-02-20T10:37:34;25.65;;;11.43;;
45522;SDS011;31254;51.680;5.394;2023-02-20T10:40:32;25.50;;;11.27;;
45522;SDS011;31254;51.680;5.394;2023-02-20T10:48:40;24.45;;;10.30;;
45522;SDS011;31254;51.680;5.394;2023-02-20T10:51:10;28.35;;;12.07;;
45522;SDS011;31254;51.680;5.394;2023-02-20T10:54:23;22.80;;;11.77;;
45522;SDS011;31254;51.680;5.394;2023-02-20T10:56:56;28.10;;;11.25;;
45522;SDS011;31254;51.680;5.394;2023-02-20T10:59:42;25.33;;;11.27;;
45522;SDS011;31254;51.680;5.394;2023-02-20T11:02:38;27.35;;;11.95;;
45522;SDS011;31254;51.680;5.394;2023-02-20T11:05:13;26.27;;;11.02;;
45522;SDS011;31254;51.680;5.394;2023-02-20T11:07:44;29.30;;;11.38;;
45522;SDS011;31254;51.680;5.394;2023-02-20T11:10:10;24.95;;;11.32;;
45522;SDS011;31254;51.680;5.394;2023-02-20T11:12:41;25.13;;;11.40;;
45522;SDS011;31254;51.680;5.394;2023-02-20T11:15:13;22.40;;;10.50;;
45522;SDS011;31254;51.680;5.394;2023-02-20T11:17:47;29.23;;;11.13;;
45522;SDS011;31254;51.680;5.394;2023-02-20T11:23:01;31.42;;;12.80;;
45522;SDS011;31254;51.680;5.394;2023-02-20T11:25:28;24.67;;;11.45;;
45522;SDS011;31254;51.680;5.394;2023-02-20T11:28:06;22.23;;;10.80;;
45522;SDS011;31254;51.680;5.394;2023-02-20T11:30:44;18.70;;;8.65;;
45522;SDS011;31254;51.680;5.394;2023-02-20T11:33:23;20.13;;;7.53;;
45522;SDS011;31254;51.680;5.394;2023-02-20T11:39:44;16.13;;;7.32;;
45522;SDS011;31254;51.680;5.394;2023-02-20T11:41:43;22.60;;;9.50;;
45522;SDS011;31254;51.680;5.394;2023-02-20T11:46:38;22.33;;;9.07;;
45522;SDS011;31254;51.680;5.394;2023-02-20T11:49:06;16.98;;;7.45;;
45522;SDS011;31254;51.680;5.394;2023-02-20T11:51:40;19.42;;;6.30;;
45522;SDS011;31254;51.680;5.394;2023-02-20T11:54:18;15.00;;;5.10;;
45522;SDS011;31254;51.680;5.394;2023-02-20T11:56:58;16.90;;;5.72;;
45522;SDS011;31254;51.680;5.394;2023-02-20T11:59:38;12.43;;;5.55;;
45522;SDS011;31254;51.680;5.394;2023-02-20T12:04:43;13.98;;;5.10;;
45522;SDS011;31254;51.680;5.394;2023-02-20T12:07:26;19.00;;;4.90;;
45522;SDS011;31254;51.680;5.394;2023-02-20T12:12:57;14.77;;;4.70;;
45522;SDS011;31254;51.680;5.394;2023-02-20T12:15:27;11.63;;;5.20;;
45522;SDS011;31254;51.680;5.394;2023-02-20T12:20:51;14.45;;;5.45;;
45522;SDS011;31254;51.680;5.394;2023-02-20T12:29:04;17.70;;;5.53;;
45522;SDS011;31254;51.680;5.394;2023-02-20T12:40:50;13.98;;;7.43;;
45522;SDS011;31254;51.680;5.394;2023-02-20T12:52:15;20.35;;;10.63;;
45522;SDS011;31254;51.680;5.394;2023-02-20T13:00:00;26.90;;;13.55;;
45522;SDS011;31254;51.680;5.394;2023-02-20T13:05:18;19.98;;;11.85;;
45522;SDS011;31254;51.680;5.394;2023-02-20T13:07:55;22.45;;;13.48;;
45522;SDS011;31254;51.680;5.394;2023-02-20T13:10:31;23.67;;;12.32;;
45522;SDS011;31254;51.680;5.394;2023-02-20T13:13:00;22.65;;;11.95;;
45522;SDS011;31254;51.680;5.394;2023-02-20T13:15:48;25.83;;;13.30;;
45522;SDS011;31254;51.680;5.394;2023-02-20T13:18:24;17.45;;;11.90;;
45522;SDS011;31254;51.680;5.394;2023-02-20T13:20:55;20.13;;;11.45;;
45522;SDS011;31254;51.680;5.394;2023-02-20T13:23:31;17.15;;;9.70;;
45522;SDS011;31254;51.680;5.394;2023-02-20T13:26:03;23.27;;;10.93;;
45522;SDS011;31254;51.680;5.394;2023-02-20T13:29:35;18.13;;;10.00;;
45522;SDS011;31254;51.680;5.394;2023-02-20T13:31:58;15.32;;;9.30;;
45522;SDS011;31254;51.680;5.394;2023-02-20T13:34:29;17.38;;;8.88;;
45522;SDS011;31254;51.680;5.394;2023-02-20T13:36:56;18.63;;;8.45;;
45522;SDS011;31254;51.680;5.394;2023-02-20T13:47:19;14.00;;;7.95;;
45522;SDS011;31254;51.680;5.394;2023-02-20T13:49:57;16.05;;;8.85;;
45522;SDS011;31254;51.680;5.394;2023-02-20T13:52:37;15.32;;;8.40;;
45522;SDS011;31254;51.680;5.394;2023-02-20T13:57:44;20.23;;;8.68;;
45522;SDS011;31254;51.680;5.394;2023-02-20T14:02:42;14.13;;;8.85;;
45522;SDS011;31254;51.680;5.394;2023-02-20T14:05:18;15.88;;;9.07;;
45522;SDS011;31254;51.680;5.394;2023-02-20T14:07:49;19.70;;;9.38;;
45522;SDS011;31254;51.680;5.394;2023-02-20T14:10:23;20.42;;;9.65;;
45522;SDS011;31254;51.680;5.394;2023-02-20T14:15:27;17.60;;;10.07;;
45522;SDS011;31254;51.680;5.394;2023-02-20T14:17:57;16.67;;;8.93;;
45522;SDS011;31254;51.680;5.394;2023-02-20T14:20:34;20.05;;;9.35;;
45522;SDS011;31254;51.680;5.394;2023-02-20T14:23:08;20.58;;;9.93;;
45522;SDS011;31254;51.680;5.394;2023-02-20T14:25:51;14.82;;;9.73;;
45522;SDS011;31254;51.680;5.394;2023-02-20T14:28:27;18.67;;;10.95;;
45522;SDS011;31254;51.680;5.394;2023-02-20T14:31:02;15.30;;;10.57;;
45522;SDS011;31254;51.680;5.394;2023-02-20T14:33:31;21.13;;;10.40;;
45522;SDS011;31254;51.680;5.394;2023-02-20T14:36:19;18.50;;;9.88;;
45522;SDS011;31254;51.680;5.394;2023-02-20T14:41:55;19.73;;;11.07;;
45522;SDS011;31254;51.680;5.394;2023-02-20T14:44:24;18.85;;;11.10;;
45522;SDS011;31254;51.680;5.394;2023-02-20T14:46:55;19.70;;;10.10;;
45522;SDS011;31254;51.680;5.394;2023-02-20T14:49:28;16.60;;;10.63;;
45522;SDS011;31254;51.680;5.394;2023-02-20T14:54:35;22.27;;;10.57;;
45522;SDS011;31254;51.680;5.394;2023-02-20T14:57:04;20.02;;;9.75;;
45522;SDS011;31254;51.680;5.394;2023-02-20T14:59:35;19.45;;;9.32;;
45522;SDS011;31254;51.680;5.394;2023-02-20T15:02:17;16.67;;;8.68;;
45522;SDS011;31254;51.680;5.394;2023-02-20T15:05:03;14.18;;;8.10;;
45522;SDS011;31254;51.680;5.394;2023-02-20T15:07:32;19.02;;;7.50;;
45522;SDS011;31254;51.680;5.394;2023-02-20T15:10:04;14.20;;;7.85;;
45522;SDS011;31254;51.680;5.394;2023-02-20T15:12:55;14.15;;;7.63;;
45522;SDS011;31254;51.680;5.394;2023-02-20T15:15:27;14.45;;;8.18;;
45522;SDS011;31254;51.680;5.394;2023-02-20T15:18:04;16.33;;;7.40;;
45522;SDS011;31254;51.680;5.394;2023-02-20T15:20:38;14.48;;;8.02;;
45522;SDS011;31254;51.680;5.394;2023-02-20T15:23:09;13.60;;;7.30;;
45522;SDS011;31254;51.680;5.394;2023-02-20T15:25:41;14.93;;;7.40;;
45522;SDS011;31254;51.680;5.394;2023-02-20T15:28:13;18.48;;;7.47;;
45522;SDS011;31254;51.680;5.394;2023-02-20T15:33:46;19.20;;;7.55;;
45522;SDS011;31254;51.680;5.394;2023-02-20T15:36:18;14.70;;;6.97;;
45522;SDS011;31254;51.680;5.394;2023-02-20T15:38:55;15.20;;;7.47;;
45522;SDS011;31254;51.680;5.394;2023-02-20T15:41:24;14.75;;;7.57;;
45522;SDS011;31254;51.680;5.394;2023-02-20T15:43:53;17.60;;;8.38;;
45522;SDS011;31254;51.680;5.394;2023-02-20T15:46:19;20.75;;;9.10;;
45522;SDS011;31254;51.680;5.394;2023-02-20T15:48:46;14.43;;;8.25;;
45522;SDS011;31254;51.680;5.394;2023-02-20T15:51:14;18.80;;;8.55;;
45522;SDS011;31254;51.680;5.394;2023-02-20T15:53:45;17.25;;;8.85;;
45522;SDS011;31254;51.680;5.394;2023-02-20T15:56:16;16.20;;;8.57;;
45522;SDS011;31254;51.680;5.394;2023-02-20T15:58:43;16.27;;;8.70;;
45522;SDS011;31254;51.680;5.394;2023-02-20T16:01:12;16.85;;;8.18;;
45522;SDS011;31254;51.680;5.394;2023-02-20T16:03:44;16.60;;;8.25;;
45522;SDS011;31254;51.680;5.394;2023-02-20T16:06:19;15.40;;;8.45;;
45522;SDS011;31254;51.680;5.394;2023-02-20T16:08:47;18.92;;;7.93;;
45522;SDS011;31254;51.680;5.394;2023-02-20T16:11:16;16.75;;;7.22;;
45522;SDS011;31254;51.680;5.394;2023-02-20T16:13:44;21.67;;;7.63;;
45522;SDS011;31254;51.680;5.394;2023-02-20T16:18:50;12.98;;;6.82;;
45522;SDS011;31254;51.680;5.394;2023-02-20T16:21:20;11.18;;;6.07;;
45522;SDS011;31254;51.680;5.394;2023-02-20T16:23:48;16.08;;;6.70;;
45522;SDS011;31254;51.680;5.394;2023-02-20T16:26:16;12.45;;;6.47;;
45522;SDS011;31254;51.680;5.394;2023-02-20T16:28:45;12.18;;;6.32;;
45522;SDS011;31254;51.680;5.394;2023-02-20T16:31:20;14.00;;;5.90;;
45522;SDS011;31254;51.680;5.394;2023-02-20T16:33:49;8.98;;;4.40;;
45522;SDS011;31254;51.680;5.394;2023-02-20T16:36:18;18.02;;;6.03;;
45522;SDS011;31254;51.680;5.394;2023-02-20T16:38:50;11.77;;;5.80;;
45522;SDS011;31254;51.680;5.394;2023-02-20T16:41:17;14.60;;;6.00;;
45522;SDS011;31254;51.680;5.394;2023-02-20T16:43:44;12.23;;;5.85;;
45522;SDS011;31254;51.680;5.394;2023-02-20T16:46:10;10.43;;;5.53;;
45522;SDS011;31254;51.680;5.394;2023-02-20T16:48:54;11.32;;;5.93;;
45522;SDS011;31254;51.680;5.394;2023-02-20T16:51:21;13.60;;;6.07;;
45522;SDS011;31254;51.680;5.394;2023-02-20T16:53:49;15.13;;;5.88;;
45522;SDS011;31254;51.680;5.394;2023-02-20T16:56:16;12.43;;;5.40;;
45522;SDS011;31254;51.680;5.394;2023-02-20T16:58:42;12.32;;;5.68;;
45522;SDS011;31254;51.680;5.394;2023-02-20T17:01:09;13.32;;;6.07;;